Time;durP1;ratioP1;P1;durP2;ratioP2;P2;SDS_P1;SDS_P2;PMS_P1;PMS_P2;Temp;Humidity;BMP_temperature;BMP_pressure;BME280_temperature;BME280_humidity;BME280_pressure;Samples;Min_cycle;Max_cycle;Signal;HPM_P1;HPM_P2
2021/05/18 00:00:48;;;;;;;1.17;0.43;;;;;;;9.20;82.65;98648.69;5066239;28;20048;-78
2021/05/18 00:03:17;;;;;;;0.40;0.40;;;;;;;9.23;83.06;98650.16;5071985;28;20094;-78
2021/05/18 00:05:46;;;;;;;1.45;0.57;;;;;;;9.15;81.98;98641.13;5076761;28;20462;-78
2021/05/18 00:08:13;;;;;;;2.43;0.47;;;;;;;9.22;82.54;98657.47;5064798;28;20060;-78
2021/05/18 00:13:27;;;;;;;0.63;0.60;;;;;;;9.21;82.51;98663.91;5036224;28;20095;-79
2021/05/18 00:15:56;;;;;;;0.73;0.52;;;;;;;9.19;82.38;98674.13;5053903;28;20131;-78
2021/05/18 00:18:24;;;;;;;0.90;0.60;;;;;;;9.22;84.15;98679.16;5056921;28;20128;-78
2021/05/18 00:20:51;;;;;;;4.13;0.80;;;;;;;9.09;84.96;98674.38;5036955;28;20058;-79
2021/05/18 00:23:17;;;;;;;1.85;0.68;;;;;;;8.98;85.62;98669.44;5036724;28;20045;-79
2021/05/18 00:25:44;;;;;;;0.30;0.30;;;;;;;8.95;86.70;98670.66;5057278;28;20041;-79
2021/05/18 00:28:11;;;;;;;1.27;0.50;;;;;;;8.95;87.24;98673.34;5050857;28;20095;-78
2021/05/18 00:30:37;;;;;;;1.33;0.40;;;;;;;8.93;87.16;98670.00;5055959;28;20071;-79
2021/05/18 00:33:11;;;;;;;0.40;0.40;;;;;;;8.88;87.54;98647.19;5056478;28;20049;-79
2021/05/18 00:35:38;;;;;;;2.45;0.60;;;;;;;8.90;88.44;98664.09;5060327;28;20045;-79
2021/05/18 00:38:05;;;;;;;1.05;0.55;;;;;;;8.83;88.28;98664.00;5056546;28;20095;-79
2021/05/18 00:40:32;;;;;;;0.70;0.50;;;;;;;8.74;88.74;98675.97;5056377;28;20057;-77
2021/05/18 00:42:58;;;;;;;1.35;0.40;;;;;;;8.78;89.05;98677.28;5058688;28;20041;-78
2021/05/18 00:45:30;;;;;;;1.20;0.75;;;;;;;8.84;88.81;98671.13;5060968;28;20044;-78
2021/05/18 00:47:58;;;;;;;0.40;0.40;;;;;;;8.80;87.94;98678.75;5076470;28;20071;-78
2021/05/18 00:50:25;;;;;;;2.08;0.60;;;;;;;8.88;87.53;98677.00;5075989;28;20044;-78
2021/05/18 00:52:52;;;;;;;0.50;0.50;;;;;;;8.88;86.75;98683.25;5076476;28;20041;-78
2021/05/18 00:55:30;;;;;;;1.40;0.70;;;;;;;8.92;86.84;98694.59;5072388;28;20558;-78
2021/05/18 01:00:41;;;;;;;0.73;0.63;;;;;;;9.01;86.58;98691.59;5050890;28;20508;-78
2021/05/18 01:03:08;;;;;;;0.93;0.60;;;;;;;8.92;86.89;98689.16;5055594;28;20041;-79
2021/05/18 01:08:19;;;;;;;2.05;0.90;;;;;;;8.88;86.82;98675.13;5071247;28;20051;-79
2021/05/18 01:10:46;;;;;;;1.88;0.70;;;;;;;8.97;87.70;98686.72;5072866;28;20083;-79
2021/05/18 01:13:12;;;;;;;2.13;0.95;;;;;;;8.87;87.92;98681.59;5055075;28;20060;-79
2021/05/18 01:15:39;;;;;;;1.02;0.50;;;;;;;8.92;88.91;98681.88;5051586;28;20037;-79
2021/05/18 01:18:05;;;;;;;2.78;0.88;;;;;;;8.95;88.09;98688.78;5055427;28;20056;-79
2021/05/18 01:20:39;;;;;;;3.08;0.82;;;;;;;9.05;87.78;98683.94;5057152;28;20451;-79
2021/05/18 01:23:05;;;;;;;2.92;0.75;;;;;;;9.02;88.34;98698.69;5075169;28;20117;-78
2021/05/18 01:25:32;;;;;;;0.85;0.65;;;;;;;9.03;88.48;98697.69;5059025;28;20041;-79
2021/05/18 01:27:58;;;;;;;2.80;0.65;;;;;;;9.06;87.98;98693.75;5054958;28;20501;-79
2021/05/18 01:30:25;;;;;;;0.70;0.65;;;;;;;9.06;87.65;98692.91;5055395;28;20515;-79
2021/05/18 01:32:51;;;;;;;0.45;0.45;;;;;;;9.05;88.25;98689.38;5055260;28;20049;-79
2021/05/18 01:35:18;;;;;;;0.73;0.73;;;;;;;9.08;87.93;98694.41;5054763;28;20049;-79
2021/05/18 01:37:45;;;;;;;0.50;0.50;;;;;;;9.02;87.14;98689.75;5055084;28;20041;-78
2021/05/18 01:42:45;;;;;;;0.70;0.52;;;;;;;8.95;87.07;98696.94;5054914;28;20049;-79
2021/05/18 01:43:05;;;;;;;0.82;0.65;;;;;;;8.96;87.92;98709.47;5056232;28;20086;-79
2021/05/18 01:45:32;;;;;;;0.57;0.50;;;;;;;8.92;88.49;98702.72;5054483;28;20064;-79
2021/05/18 01:48:01;;;;;;;0.50;0.40;;;;;;;8.98;87.75;98704.69;5054725;28;20048;-78
2021/05/18 01:50:31;;;;;;;2.50;0.82;;;;;;;8.96;88.19;98699.44;5066993;28;20051;-78
2021/05/18 01:52:58;;;;;;;0.55;0.52;;;;;;;8.85;88.28;98697.19;5074598;28;20048;-78
2021/05/18 01:55:29;;;;;;;1.08;0.50;;;;;;;8.96;88.59;98704.03;5073956;28;20075;-79
2021/05/18 01:57:55;;;;;;;1.90;0.60;;;;;;;9.01;87.96;98707.84;5074310;28;20583;-78
2021/05/18 02:00:25;;;;;;;1.13;0.65;;;;;;;8.93;88.43;98707.97;5074025;28;20044;-78
2021/05/18 02:02:53;;;;;;;3.72;0.68;;;;;;;8.89;88.62;98695.78;5071227;28;20052;-79
2021/05/18 02:05:20;;;;;;;1.42;0.60;;;;;;;8.96;87.83;98706.75;5054141;28;20049;-78
2021/05/18 02:07:50;;;;;;;3.45;0.80;;;;;;;8.88;87.93;98685.97;5054378;28;20083;-78
2021/05/18 02:10:18;;;;;;;6.07;0.70;;;;;;;9.09;87.11;98711.50;5053925;28;20106;-78
2021/05/18 02:12:45;;;;;;;0.60;0.60;;;;;;;9.01;87.40;98694.28;5053773;28;20053;-78
2021/05/18 02:15:23;;;;;;;0.65;0.65;;;;;;;9.08;87.64;98704.41;5061229;28;20041;-78
2021/05/18 02:18:13;;;;;;;0.60;0.57;;;;;;;8.88;87.94;98704.09;5065897;28;20045;-79
2021/05/18 02:20:42;;;;;;;;;;;;;;;8.90;87.78;98712.88;5059901;28;20084;-77
2021/05/18 02:25:54;;;;;;;1.50;0.60;;;;;;;8.83;88.61;98715.50;5050281;28;20107;-78
2021/05/18 02:28:20;;;;;;;2.08;0.82;;;;;;;8.85;88.71;98718.88;5062763;28;20045;-79
2021/05/18 02:30:48;;;;;;;0.70;0.70;;;;;;;8.83;88.49;98720.94;5056083;28;20103;-78
2021/05/18 02:33:15;;;;;;;2.05;1.00;;;;;;;8.80;88.87;98724.84;5059604;28;20094;-79
2021/05/18 02:35:41;;;;;;;0.85;0.68;;;;;;;8.73;88.81;98721.22;5063314;28;20049;-79
2021/05/18 02:38:07;;;;;;;3.60;0.60;;;;;;;8.70;88.88;98728.84;5061885;28;20044;-79
2021/05/18 02:40:36;;;;;;;2.17;0.40;;;;;;;8.63;89.00;98721.44;5055800;28;20488;-79
2021/05/18 02:43:04;;;;;;;1.63;0.90;;;;;;;8.74;88.84;98728.28;5060386;28;20056;-79
2021/05/18 02:45:33;;;;;;;0.82;0.68;;;;;;;8.67;88.34;98732.75;5071926;28;20056;-79
2021/05/18 02:50:44;;;;;;;0.75;0.50;;;;;;;8.73;87.99;98742.88;5053751;28;20072;-79
2021/05/18 02:53:10;;;;;;;1.17;0.77;;;;;;;8.54;88.86;98725.25;5055459;28;20082;-79
2021/05/18 02:55:40;;;;;;;2.38;1.02;;;;;;;8.60;88.84;98740.78;5053486;28;20049;-79
2021/05/18 02:58:09;;;;;;;3.90;0.57;;;;;;;8.57;89.63;98743.88;5053321;28;20179;-78
2021/05/18 03:00:35;;;;;;;2.70;0.88;;;;;;;8.54;90.01;98740.69;5059341;28;20480;-78
2021/05/18 03:03:02;;;;;;;0.73;0.50;;;;;;;8.62;89.15;98746.84;5062745;28;20067;-79
2021/05/18 03:05:28;;;;;;;0.80;0.80;;;;;;;8.68;88.48;98737.16;5073291;28;20672;-78
2021/05/18 03:07:55;;;;;;;0.88;0.68;;;;;;;8.68;89.42;98745.28;5066595;28;20045;-78
2021/05/18 03:10:22;;;;;;;0.60;0.60;;;;;;;8.73;89.53;98734.75;5057496;28;20037;-78
2021/05/18 03:12:49;;;;;;;1.25;0.63;;;;;;;8.66;88.84;98731.94;5054654;28;20051;-78
2021/05/18 03:15:17;;;;;;;1.45;0.80;;;;;;;8.61;89.53;98738.91;5040899;28;20103;-78
2021/05/18 03:17:43;;;;;;;1.65;0.75;;;;;;;8.70;89.20;98745.09;5073000;28;20082;-78
2021/05/18 03:20:14;;;;;;;1.05;0.50;;;;;;;8.60;89.02;98742.66;5067498;28;20072;-78
2021/05/18 03:22:41;;;;;;;2.65;0.70;;;;;;;8.44;88.46;98730.91;5057397;28;20130;-78
2021/05/18 03:25:10;;;;;;;1.08;0.68;;;;;;;8.52;88.32;98740.00;5058133;28;20041;-78
2021/05/18 03:27:38;;;;;;;2.17;0.73;;;;;;;8.53;88.93;98741.72;5053626;28;20527;-78
2021/05/18 03:30:17;;;;;;;0.47;0.47;;;;;;;8.60;88.35;98742.66;5053314;28;20140;-78
2021/05/18 03:35:29;;;;;;;0.60;0.60;;;;;;;8.60;87.70;98753.50;5060968;28;20440;-80
2021/05/18 03:37:56;;;;;;;0.50;0.50;;;;;;;8.61;88.52;98757.88;5060828;28;20097;-79
2021/05/18 03:40:24;;;;;;;0.75;0.50;;;;;;;8.72;88.18;98759.34;5052625;28;20056;-79
2021/05/18 03:42:55;;;;;;;1.33;0.82;;;;;;;8.75;88.33;98756.25;5058674;28;20143;-79
2021/05/18 03:45:22;;;;;;;1.38;0.80;;;;;;;8.76;88.03;98758.78;5051420;28;20045;-79
2021/05/18 03:53:33;;;;;;;0.50;0.50;;;;;;;8.68;88.10;98756.13;5051811;28;20060;-78
2021/05/18 03:58:58;;;;;;;0.82;0.60;;;;;;;8.57;88.79;98764.72;5072973;28;20097;-78
2021/05/18 04:04:16;;;;;;;6.03;1.08;;;;;;;8.68;88.30;98759.66;5052781;28;20122;-78
2021/05/18 04:18:03;;;;;;;1.40;0.70;;;;;;;8.76;87.67;98777.75;5053029;28;20092;-81
2021/05/18 04:20:41;;;;;;;0.85;0.52;;;;;;;8.85;87.82;98770.38;5052759;28;20045;-81
2021/05/18 04:26:13;;;;;;;1.65;0.50;;;;;;;8.81;86.63;98774.50;5052781;28;20394;-81
2021/05/18 04:52:15;;;;;;;0.55;0.52;;;;;;;8.96;86.42;98816.03;5026407;28;20102;-81
2021/05/18 05:00:22;;;;;;;1.08;0.68;;;;;;;9.04;86.55;98817.81;5055846;28;20126;-81
2021/05/18 05:03:08;;;;;;;1.02;0.70;;;;;;;9.04;85.41;98824.06;5056163;28;20060;-81
2021/05/18 05:08:25;;;;;;;2.83;0.75;;;;;;;9.36;85.87;98832.94;5035555;28;20060;-82
2021/05/18 05:16:20;;;;;;;2.13;0.70;;;;;;;9.34;84.89;98834.16;5055181;28;20511;-80
2021/05/18 05:18:46;;;;;;;1.73;0.90;;;;;;;9.46;84.99;98848.09;5069169;28;20056;-82
2021/05/18 05:21:29;;;;;;;2.55;0.80;;;;;;;9.55;85.40;98830.72;5059226;28;20052;-81
2021/05/18 05:24:02;;;;;;;1.60;0.98;;;;;;;9.81;84.19;98851.94;5035718;28;20056;-81
2021/05/18 05:26:30;;;;;;;0.68;0.63;;;;;;;9.86;82.63;98833.25;5059754;28;20064;-81
2021/05/18 05:29:05;;;;;;;0.65;0.65;;;;;;;10.01;82.56;98835.94;5057759;28;20045;-80
2021/05/18 05:31:32;;;;;;;2.03;0.70;;;;;;;10.17;80.31;98845.72;5055012;28;20493;-81
2021/05/18 05:34:29;;;;;;;0.60;0.60;;;;;;;10.25;81.14;98859.22;5055225;28;20072;-81
2021/05/18 05:36:58;;;;;;;0.85;0.70;;;;;;;10.01;81.64;98844.09;5059696;28;20049;-81
2021/05/18 05:39:27;;;;;;;0.77;0.77;;;;;;;10.05;82.42;98858.94;5059510;28;20056;-82
2021/05/18 05:42:20;;;;;;;11.17;4.03;;;;;;;9.86;82.67;98859.53;5078666;22;20305;-81
2021/05/18 05:44:50;;;;;;;3.15;2.25;;;;;;;9.81;84.03;98845.69;5051854;28;20283;-81
2021/05/18 05:47:16;;;;;;;2.15;1.17;;;;;;;9.91;82.52;98857.09;5052863;28;20127;-80
2021/05/18 05:49:42;;;;;;;2.17;0.73;;;;;;;9.83;82.40;98852.63;5058450;28;20047;-80
2021/05/18 05:52:17;;;;;;;2.00;0.95;;;;;;;9.81;84.16;98864.69;5063827;28;20040;-81
2021/05/18 05:54:45;;;;;;;0.73;0.68;;;;;;;9.70;82.48;98863.28;5062182;28;20072;-79
2021/05/18 05:57:12;;;;;;;0.88;0.70;;;;;;;9.73;83.91;98854.78;5060138;28;20048;-78
2021/05/18 05:59:38;;;;;;;1.20;1.10;;;;;;;9.63;84.82;98852.31;5055263;28;20045;-80
2021/05/18 06:02:04;;;;;;;3.78;1.35;;;;;;;9.72;84.97;98864.75;5053935;28;20439;-80
2021/05/18 06:04:31;;;;;;;2.47;1.13;;;;;;;9.57;84.93;98859.34;5052616;28;20051;-80
2021/05/18 06:06:57;;;;;;;1.70;1.13;;;;;;;9.48;85.64;98856.91;5054789;28;20052;-79
2021/05/18 06:09:24;;;;;;;15.15;1.65;;;;;;;9.42;86.02;98853.03;5060299;28;20488;-79
2021/05/18 06:11:56;;;;;;;4.47;1.80;;;;;;;9.37;86.66;98878.03;5054004;28;20067;-79
2021/05/18 06:14:35;;;;;;;8.57;4.55;;;;;;;9.30;86.55;98871.63;5064276;28;20049;-79
2021/05/18 06:42:06;;;;;;;4.63;1.00;;;;;;;9.72;86.65;98885.66;5051659;28;20083;-79
2021/05/18 06:47:31;;;;;;;1.77;0.90;;;;;;;10.03;85.38;98895.50;5044301;28;20126;-79
2021/05/18 06:50:00;;;;;;;1.30;0.98;;;;;;;10.08;85.20;98904.75;5051692;28;20057;-80
2021/05/18 06:52:27;;;;;;;2.60;1.00;;;;;;;9.94;85.21;98899.34;5052111;28;20133;-79
2021/05/18 06:55:34;;;;;;;4.53;2.30;;;;;;;10.22;86.42;98897.63;5050597;28;20477;-79
2021/05/18 07:02:18;;;;;;;3.30;1.00;;;;;;;10.63;84.02;98907.97;4969411;28;20505;-80
2021/05/18 07:08:57;;;;;;;0.85;0.85;;;;;;;10.88;83.77;98907.59;4969744;28;20066;-80
2021/05/18 07:15:25;;;;;;;1.50;1.00;;;;;;;10.99;83.27;98911.72;4905909;29;20139;-81
2021/05/18 07:21:17;;;;;;;1.50;0.70;;;;;;;11.73;80.61;98898.72;4912781;29;20047;-80
2021/05/18 07:23:52;;;;;;;1.20;0.95;;;;;;;12.14;79.50;98906.13;4915215;29;20053;-80
2021/05/18 07:32:09;;;;;;;2.03;0.83;;;;;;;12.71;75.77;98913.09;4864666;29;20083;-80
2021/05/18 07:34:35;;;;;;;2.45;1.00;;;;;;;12.38;76.10;98908.34;4930308;29;20500;-80
2021/05/18 07:37:02;;;;;;;3.05;0.80;;;;;;;12.61;76.27;98922.69;4930847;29;20099;-80
2021/05/18 07:39:41;;;;;;;3.15;1.10;;;;;;;12.44;75.63;98911.31;5016680;28;20045;-80
2021/05/18 07:42:16;;;;;;;2.45;0.90;;;;;;;12.11;76.11;98912.81;5042790;28;20080;-80
2021/05/18 07:44:57;;;;;;;1.42;1.02;;;;;;;12.40;76.30;98910.88;5057279;22;20128;-80
2021/05/18 07:47:38;;;;;;;2.72;0.90;;;;;;;12.32;74.91;98905.59;5050565;28;20068;-80
2021/05/18 07:50:44;;;;;;;4.57;0.80;;;;;;;12.63;74.31;98917.88;5050654;28;20045;-80
2021/05/18 07:59:35;;;;;;;5.07;1.70;;;;;;;13.09;72.20;98915.25;5008538;28;20060;-82
2021/05/18 08:05:18;;;;;;;3.00;1.08;;;;;;;13.74;73.31;98890.09;4973969;28;20084;-82
2021/05/18 08:07:45;;;;;;;3.03;0.95;;;;;;;13.62;71.70;98909.06;5007309;28;20181;-82
2021/05/18 08:10:33;;;;;;;5.20;0.90;;;;;;;13.91;69.24;98901.44;5040649;28;20049;-82
2021/05/18 08:13:05;;;;;;;3.92;1.25;;;;;;;13.69;66.64;98889.06;5050340;28;20056;-82
2021/05/18 08:15:38;;;;;;;5.53;1.40;;;;;;;13.63;69.64;98897.06;5049880;28;20045;-82
2021/05/18 08:18:18;;;;;;;3.00;0.85;;;;;;;13.14;68.90;98902.88;5050100;28;20145;-83
2021/05/18 10:35:48;;;;;;;2.83;0.70;;;;;;;15.15;63.91;98832.91;5036151;28;20131;-82
2021/05/18 10:38:19;;;;;;;3.20;0.80;;;;;;;15.57;62.35;98829.59;5043718;28;20339;-82
2021/05/18 10:40:48;;;;;;;2.13;0.63;;;;;;;15.49;61.73;98819.78;5051612;28;20059;-82
2021/05/18 10:43:29;;;;;;;0.70;0.60;;;;;;;15.70;58.63;98815.75;5051616;28;20052;-82
2021/05/18 10:46:32;;;;;;;1.92;0.70;;;;;;;15.67;60.77;98823.59;5051702;28;20045;-83
2021/05/18 10:49:06;;;;;;;5.63;1.13;;;;;;;14.82;60.72;98833.16;5049799;28;20465;-84
2021/05/18 10:51:38;;;;;;;4.10;1.10;;;;;;;14.83;62.65;98824.72;5050210;28;20472;-84
2021/05/18 10:54:13;;;;;;;2.35;0.60;;;;;;;15.34;58.50;98806.41;5051122;28;20107;-83
2021/05/18 10:57:03;;;;;;;2.17;0.75;;;;;;;16.06;57.73;98819.63;5032290;28;20404;-83
2021/05/18 10:59:34;;;;;;;2.88;0.68;;;;;;;16.10;54.96;98803.53;5034666;28;20037;-83
2021/05/18 11:02:03;;;;;;;2.60;0.70;;;;;;;15.50;55.84;98820.59;5048358;28;20053;-82
2021/05/18 11:04:31;;;;;;;1.35;0.68;;;;;;;15.17;57.89;98819.81;5033942;28;20037;-83
2021/05/18 11:06:58;;;;;;;3.58;0.88;;;;;;;14.96;65.10;98821.03;5044243;28;20064;-84
2021/05/18 11:09:26;;;;;;;3.03;0.93;;;;;;;15.57;63.55;98805.75;5050551;28;20094;-84
2021/05/18 11:11:58;;;;;;;1.95;0.70;;;;;;;15.39;59.86;98803.84;5045376;28;20040;-82
2021/05/18 11:14:40;;;;;;;6.38;0.77;;;;;;;15.81;61.86;98800.50;5049580;28;20110;-82
2021/05/18 11:17:15;;;;;;;5.60;0.80;;;;;;;16.10;55.27;98798.06;5042393;28;20045;-82
2021/05/18 11:20:04;;;;;;;3.92;0.60;;;;;;;16.13;56.80;98791.28;5047697;28;20106;-83
2021/05/18 11:25:36;;;;;;;4.95;1.52;;;;;;;15.05;62.10;98818.88;5049645;28;20295;-83
2021/05/18 11:28:10;;;;;;;7.70;1.50;;;;;;;14.86;66.88;98802.38;5036826;28;20646;-84
2021/05/18 11:30:40;;;;;;;1.77;0.90;;;;;;;14.98;65.48;98794.28;5051046;28;20408;-84
2021/05/18 11:34:03;;;;;;;6.30;1.00;;;;;;;15.04;64.26;98792.56;5051027;28;20110;-82
2021/05/18 11:36:58;;;;;;;1.95;0.68;;;;;;;15.64;65.13;98796.63;4965309;28;20477;-83
2021/05/18 11:39:52;;;;;;;2.22;0.60;;;;;;;15.75;61.39;98784.94;5046554;28;20053;-82
2021/05/18 11:42:28;;;;;;;4.85;0.95;;;;;;;16.01;59.31;98789.28;5048946;28;20052;-82
2021/05/18 11:45:10;;;;;;;4.82;0.80;;;;;;;16.28;58.36;98767.03;5032189;28;20049;-82
2021/05/18 11:47:38;;;;;;;1.60;0.57;;;;;;;15.86;56.72;98777.88;5046803;28;20048;-83
2021/05/18 11:50:12;;;;;;;2.30;0.60;;;;;;;15.93;57.91;98795.09;5046658;28;20064;-83
2021/05/18 11:52:41;;;;;;;1.58;0.70;;;;;;;15.03;60.44;98799.94;5046626;28;20069;-83
2021/05/18 11:55:27;;;;;;;3.30;0.88;;;;;;;14.57;62.08;98783.81;5033424;28;20451;-82
2021/05/18 11:57:54;;;;;;;1.52;0.93;;;;;;;14.68;62.11;98794.09;5047906;28;20057;-83
2021/05/18 12:00:32;;;;;;;5.13;0.88;;;;;;;15.02;60.85;98789.19;5042486;28;20045;-82
2021/05/18 12:03:15;;;;;;;3.47;1.13;;;;;;;15.74;58.40;98783.25;5046497;28;20250;-82
2021/05/18 12:05:53;;;;;;;5.50;0.88;;;;;;;16.36;59.79;98777.66;5047550;28;20060;-82
2021/05/18 12:08:27;;;;;;;1.65;0.70;;;;;;;16.34;54.53;98765.25;5054066;28;20546;-81
2021/05/18 12:10:53;;;;;;;2.65;0.85;;;;;;;16.26;55.38;98764.50;5053397;28;20451;-82
2021/05/18 12:13:28;;;;;;;6.03;0.93;;;;;;;16.45;56.71;98757.09;5054528;28;20048;-82
2021/05/18 12:16:05;;;;;;;2.13;0.55;;;;;;;16.88;55.67;98755.19;5050148;28;20485;-82
2021/05/18 12:18:35;;;;;;;4.75;1.08;;;;;;;16.83;54.87;98751.44;5055238;28;20107;-82
2021/05/18 12:21:06;;;;;;;3.67;0.55;;;;;;;17.12;48.66;98744.25;5037295;28;20080;-82
2021/05/18 12:23:34;;;;;;;0.40;0.35;;;;;;;16.97;46.48;98744.69;5049190;28;20478;-83
2021/05/18 12:26:27;;;;;;;0.85;0.35;;;;;;;16.91;45.22;98745.66;5035399;28;20412;-83
2021/05/18 12:29:00;;;;;;;3.55;0.38;;;;;;;17.01;44.54;98739.56;5031174;28;20560;-84
2021/05/18 12:31:32;;;;;;;1.33;0.40;;;;;;;16.96;48.20;98748.50;5040491;28;20061;-84
2021/05/18 12:34:28;;;;;;;1.50;0.55;;;;;;;16.99;47.61;98728.81;5038702;28;20046;-85
2021/05/18 12:36:55;;;;;;;2.08;0.25;;;;;;;17.22;46.52;98736.22;5036243;28;20123;-86
2021/05/18 12:39:23;;;;;;;1.77;0.25;;;;;;;17.06;44.72;98729.53;5035168;28;20091;-85
2021/05/18 12:41:53;;;;;;;1.75;0.47;;;;;;;17.28;46.47;98734.44;5035869;28;20057;-87
2021/05/18 12:44:20;;;;;;;1.75;0.47;;;;;;;17.21;46.90;98717.22;5053741;28;20477;-86
2021/05/18 12:46:58;;;;;;;3.33;0.50;;;;;;;17.34;46.02;98731.56;5053893;28;20041;-84
2021/05/18 12:49:31;;;;;;;3.47;0.50;;;;;;;17.06;44.59;98726.78;5039144;28;20126;-88
2021/05/18 12:52:14;;;;;;;3.50;0.70;;;;;;;16.73;48.16;98744.63;5044044;28;20131;-85
2021/05/18 12:54:43;;;;;;;5.13;1.00;;;;;;;15.70;47.40;98724.47;5045199;28;20049;-86
2021/05/18 12:57:11;;;;;;;1.30;0.50;;;;;;;15.56;52.17;98738.34;5034812;28;20171;-86
2021/05/18 13:00:12;;;;;;;2.65;0.50;;;;;;;15.42;52.15;98725.84;5042567;28;20153;-86
2021/05/18 13:02:50;;;;;;;2.70;0.90;;;;;;;16.31;50.56;98733.63;5036093;28;20053;-86
2021/05/18 13:05:21;;;;;;;1.25;0.47;;;;;;;16.94;47.05;98732.28;5039656;28;20084;-85
2021/05/18 13:08:15;;;;;;;1.55;0.80;;;;;;;17.47;45.42;98714.00;5053601;28;20408;-85
2021/05/18 13:11:03;;;;;;;;;;;;;;;;;;;;;
2021/05/18 13:13:46;;;;;;;3.65;0.82;;;;;;;16.85;46.61;98719.94;5033943;28;20045;-86
2021/05/18 13:16:25;;;;;;;;;;;;;;;;;;;;;
2021/05/18 13:18:55;;;;;;;1.50;0.55;;;;;;;17.53;47.08;98723.19;5053796;28;20049;-85
2021/05/18 13:21:24;;;;;;;;;;;;;;;16.90;46.88;98738.47;5050972;28;20041;-86
2021/05/18 13:26:36;;;;;;;3.30;1.02;;;;;;;15.35;50.40;98749.72;5035718;28;20204;-86
2021/05/18 13:29:08;;;;;;;4.55;0.93;;;;;;;14.85;54.21;98737.75;5053801;28;20052;-86
2021/05/18 13:31:39;;;;;;;2.92;0.70;;;;;;;14.88;56.48;98741.94;5040953;28;20552;-84
2021/05/18 13:34:07;;;;;;;2.65;0.68;;;;;;;14.66;56.99;98752.44;5051373;28;20102;-86
2021/05/18 13:36:43;;;;;;;2.10;0.50;;;;;;;14.73;56.71;98745.00;5052938;28;20060;-87
2021/05/18 13:39:29;;;;;;;1.77;0.65;;;;;;;14.84;55.46;98740.72;5052914;28;20531;-85
2021/05/18 13:41:55;;;;;;;2.03;0.70;;;;;;;15.00;54.92;98737.41;5038518;28;20140;-85
2021/05/18 13:44:22;;;;;;;4.97;0.90;;;;;;;15.13;54.65;98738.34;5047588;28;20435;-85
2021/05/18 13:46:52;;;;;;;1.45;0.60;;;;;;;15.32;55.63;98737.31;5052863;28;20057;-86
2021/05/18 13:49:18;;;;;;;6.13;1.90;;;;;;;15.86;53.07;98726.63;5052985;28;20126;-85
2021/05/18 13:51:46;;;;;;;0.75;0.50;;;;;;;16.20;50.37;98712.47;5053776;28;20099;-85
2021/05/18 13:54:15;;;;;;;2.08;0.63;;;;;;;16.48;51.03;98717.34;5045729;28;20049;-86
2021/05/18 13:56:42;;;;;;;0.70;0.40;;;;;;;16.01;50.88;98712.53;5049632;28;20484;-84
2021/05/18 13:59:08;;;;;;;2.40;0.60;;;;;;;15.76;51.60;98718.06;5051971;28;20052;-84
2021/05/18 14:01:34;;;;;;;1.67;0.80;;;;;;;15.13;52.17;98708.25;5047126;28;20040;-85
2021/05/18 14:04:01;;;;;;;5.93;0.93;;;;;;;15.21;54.49;98705.22;5043511;28;20041;-84
2021/05/18 14:06:30;;;;;;;2.05;0.75;;;;;;;15.20;55.20;98726.31;5051976;28;20041;-84
2021/05/18 14:08:57;;;;;;;2.67;0.70;;;;;;;14.85;54.74;98736.94;5053123;28;20053;-82
2021/05/18 14:11:24;;;;;;;7.38;1.05;;;;;;;13.60;59.19;98743.69;5051209;28;20386;-81
2021/05/18 14:13:52;;;;;;;2.70;0.47;;;;;;;12.73;60.10;98760.97;5034583;28;20432;-82
2021/05/18 14:16:21;;;;;;;1.95;0.63;;;;;;;12.36;64.72;98762.38;5047660;28;20100;-81
2021/05/18 14:18:52;;;;;;;2.83;1.25;;;;;;;12.15;65.68;98782.44;5033263;28;20115;-82
2021/05/18 14:21:20;;;;;;;6.60;0.90;;;;;;;11.86;65.33;98759.88;5036650;28;20203;-83
2021/05/18 14:23:54;;;;;;;1.27;0.50;;;;;;;11.72;65.99;98760.88;5043043;28;20109;-81
2021/05/18 14:26:23;;;;;;;1.85;0.60;;;;;;;11.69;67.44;98753.97;5048694;28;20095;-81
2021/05/18 14:29:04;;;;;;;1.13;0.63;;;;;;;12.37;67.51;98759.47;5042407;28;20205;-81
2021/05/18 14:31:58;;;;;;;;;;;;;;;;;;;;;
2021/05/18 14:34:54;;;;;;;0.68;0.43;;;;;;;13.99;64.27;98737.22;5045259;28;20063;-82
2021/05/18 14:37:23;;;;;;;4.38;0.93;;;;;;;14.76;59.88;98727.31;5031976;28;20132;-82
2021/05/18 14:39:57;;;;;;;1.15;0.60;;;;;;;14.65;61.19;98729.72;5045699;28;20137;-82
2021/05/18 14:45:12;;;;;;;2.67;0.60;;;;;;;15.24;59.13;98740.38;5030300;28;20067;-82
2021/05/18 14:47:45;;;;;;;2.45;0.50;;;;;;;15.66;58.48;98737.81;5032087;28;20519;-82
2021/05/18 14:55:49;;;;;;;3.15;0.80;;;;;;;15.46;56.31;98718.00;5041838;28;20052;-82
2021/05/18 14:58:16;;;;;;;0.70;0.30;;;;;;;15.20;56.16;98717.22;5044146;28;20045;-82
2021/05/18 15:00:43;;;;;;;0.70;0.40;;;;;;;15.18;57.26;98725.66;5038780;28;20096;-83
2021/05/18 15:03:10;;;;;;;1.10;0.50;;;;;;;15.14;53.46;98729.91;5038297;28;20037;-83
2021/05/18 15:05:37;;;;;;;0.73;0.40;;;;;;;15.13;53.16;98722.78;5040178;28;20404;-82
2021/05/18 15:08:04;;;;;;;0.65;0.50;;;;;;;14.95;52.37;98709.91;5034182;28;20042;-83
2021/05/18 15:10:30;;;;;;;4.35;0.50;;;;;;;14.75;54.06;98731.09;5049948;28;20044;-83
2021/05/18 15:12:56;;;;;;;1.83;0.52;;;;;;;14.48;55.38;98723.91;5050335;28;20063;-83
2021/05/18 15:15:24;;;;;;;2.30;1.38;;;;;;;14.33;57.46;98718.75;5037907;28;20053;-83
2021/05/18 15:17:52;;;;;;;1.67;0.68;;;;;;;14.29;56.53;98714.78;5048182;28;20431;-82
2021/05/18 15:20:18;;;;;;;6.03;0.88;;;;;;;14.28;57.11;98729.50;5038362;28;20077;-83
2021/05/18 15:22:45;;;;;;;1.73;0.45;;;;;;;14.46;58.20;98731.50;5038103;28;20056;-83
2021/05/18 15:25:11;;;;;;;1.80;0.43;;;;;;;15.02;56.56;98735.31;5041420;28;20103;-83
2021/05/18 15:27:39;;;;;;;1.00;0.43;;;;;;;15.73;52.33;98722.13;5049835;28;20045;-83
2021/05/18 15:30:08;;;;;;;5.20;0.57;;;;;;;16.13;49.78;98739.19;5037321;28;20267;-82
2021/05/18 15:32:47;;;;;;;0.85;0.38;;;;;;;16.53;49.24;98735.84;5032954;28;20055;-82
2021/05/18 15:35:13;;;;;;;0.73;0.47;;;;;;;16.28;50.98;98718.47;5041298;28;20064;-82
2021/05/18 15:37:43;;;;;;;2.05;0.40;;;;;;;16.28;49.54;98734.09;5036700;28;20048;-81
2021/05/18 15:40:11;;;;;;;2.65;0.60;;;;;;;16.51;49.80;98730.59;5038943;28;20241;-82
2021/05/18 15:42:40;;;;;;;2.63;0.35;;;;;;;16.13;49.54;98720.81;5050662;28;20136;-82
2021/05/18 15:45:10;;;;;;;1.52;0.77;;;;;;;15.63;52.89;98740.19;5033263;28;20056;-82
2021/05/18 15:47:38;;;;;;;1.63;0.50;;;;;;;15.31;52.58;98741.16;5031994;28;20374;-82
2021/05/18 15:50:08;;;;;;;1.23;0.55;;;;;;;14.96;52.05;98738.91;5047716;28;20110;-81
2021/05/18 15:52:34;;;;;;;1.10;1.00;;;;;;;14.99;52.86;98741.22;5034046;28;20501;-82
2021/05/18 15:55:02;;;;;;;3.63;0.70;;;;;;;14.74;53.93;98743.09;5031034;28;20072;-82
2021/05/18 15:57:29;;;;;;;0.90;0.50;;;;;;;14.62;54.52;98745.75;5037868;28;20497;-83
2021/05/18 15:59:55;;;;;;;3.33;0.98;;;;;;;14.55;55.46;98731.25;5033302;28;20072;-83
2021/05/18 16:02:21;;;;;;;9.02;3.47;;;;;;;14.42;54.74;98745.81;5044602;28;20041;-82
2021/05/18 16:04:49;;;;;;;1.75;0.65;;;;;;;14.26;56.74;98748.03;5049273;28;20052;-82
2021/05/18 16:07:18;;;;;;;1.27;0.45;;;;;;;14.21;57.47;98742.41;5050029;28;20425;-83
2021/05/18 16:09:45;;;;;;;2.33;0.47;;;;;;;13.94;56.04;98742.53;5041217;28;20469;-83
2021/05/18 16:12:11;;;;;;;1.25;0.50;;;;;;;14.09;56.54;98761.38;5048052;28;20052;-83
2021/05/18 16:14:38;;;;;;;1.17;0.35;;;;;;;14.28;57.15;98743.16;5034758;28;20052;-84
2021/05/18 16:17:06;;;;;;;0.20;0.20;;;;;;;14.75;54.02;98737.41;5036381;28;20084;-83
2021/05/18 16:19:32;;;;;;;0.82;0.50;;;;;;;15.05;52.72;98758.63;5041365;28;20049;-83
2021/05/18 16:22:32;;;;;;;2.65;0.30;;;;;;;14.99;51.64;98745.84;5031766;28;20208;-83
2021/05/18 16:28:16;;;;;;;0.82;0.50;;;;;;;14.93;51.72;98742.09;4996524;28;20065;-83
2021/05/18 16:30:43;;;;;;;1.33;0.50;;;;;;;15.21;53.10;98725.22;5013034;28;20050;-83
2021/05/18 16:33:09;;;;;;;0.90;0.35;;;;;;;15.27;51.48;98733.59;5028568;28;20068;-83
2021/05/18 16:35:36;;;;;;;1.35;0.85;;;;;;;14.92;50.54;98734.13;5039527;28;20095;-83
2021/05/18 16:38:06;;;;;;;0.55;0.30;;;;;;;14.91;51.35;98737.94;5047338;28;20050;-83
2021/05/18 16:40:33;;;;;;;3.00;0.68;;;;;;;14.77;53.91;98750.88;5032422;28;20045;-83
2021/05/18 16:42:59;;;;;;;2.22;0.55;;;;;;;14.82;53.56;98729.16;5030240;28;20050;-83
2021/05/18 16:45:26;;;;;;;0.40;0.30;;;;;;;14.83;52.41;98748.09;5031414;28;20068;-83
2021/05/18 16:47:55;;;;;;;3.10;0.40;;;;;;;14.43;52.66;98737.41;5046829;28;20055;-83
2021/05/18 16:50:21;;;;;;;2.03;0.50;;;;;;;14.46;53.11;98758.84;5053415;28;20045;-84
2021/05/18 16:52:48;;;;;;;2.25;0.35;;;;;;;14.31;52.91;98755.56;5046387;28;20409;-83